sensor_id;sensor_type;location;lat;lon;timestamp;P1;durP1;ratioP1;P2;durP2;ratioP2
37451;SDS011;23314;51.114;6.900;2023-04-16T00:01:46;66.00;;;44.70;;
37451;SDS011;23314;51.114;6.900;2023-04-16T00:04:11;67.87;;;44.73;;
37451;SDS011;23314;51.114;6.900;2023-04-16T00:06:37;62.27;;;46.00;;
37451;SDS011;23314;51.114;6.900;2023-04-16T00:09:02;65.23;;;45.20;;
37451;SDS011;23314;51.114;6.900;2023-04-16T00:11:27;61.10;;;40.67;;
37451;SDS011;23314;51.114;6.900;2023-04-16T00:13:53;56.33;;;34.93;;
37451;SDS011;23314;51.114;6.900;2023-04-16T00:16:18;53.00;;;34.07;;
37451;SDS011;23314;51.114;6.900;2023-04-16T00:18:46;59.47;;;34.87;;
37451;SDS011;23314;51.114;6.900;2023-04-16T00:21:11;56.97;;;35.60;;
37451;SDS011;23314;51.114;6.900;2023-04-16T00:23:37;55.87;;;34.70;;
37451;SDS011;23314;51.114;6.900;2023-04-16T00:26:02;54.10;;;33.60;;
37451;SDS011;23314;51.114;6.900;2023-04-16T00:28:28;52.27;;;32.07;;
37451;SDS011;23314;51.114;6.900;2023-04-16T00:30:53;51.90;;;32.33;;
37451;SDS011;23314;51.114;6.900;2023-04-16T00:33:19;54.10;;;33.13;;
37451;SDS011;23314;51.114;6.900;2023-04-16T00:35:45;59.23;;;34.80;;
37451;SDS011;23314;51.114;6.900;2023-04-16T00:38:11;65.87;;;37.67;;
37451;SDS011;23314;51.114;6.900;2023-04-16T00:40:37;65.90;;;39.90;;
37451;SDS011;23314;51.114;6.900;2023-04-16T00:43:02;68.53;;;40.00;;
37451;SDS011;23314;51.114;6.900;2023-04-16T00:45:27;63.93;;;40.77;;
37451;SDS011;23314;51.114;6.900;2023-04-16T00:47:53;59.53;;;39.40;;
37451;SDS011;23314;51.114;6.900;2023-04-16T00:50:19;60.47;;;39.80;;
37451;SDS011;23314;51.114;6.900;2023-04-16T00:52:46;72.93;;;40.37;;
37451;SDS011;23314;51.114;6.900;2023-04-16T00:55:12;75.27;;;41.80;;
37451;SDS011;23314;51.114;6.900;2023-04-16T00:57:39;64.63;;;40.93;;
37451;SDS011;23314;51.114;6.900;2023-04-16T01:00:07;71.47;;;42.47;;
37451;SDS011;23314;51.114;6.900;2023-04-16T01:02:33;66.17;;;41.80;;
37451;SDS011;23314;51.114;6.900;2023-04-16T01:04:59;71.77;;;41.77;;
37451;SDS011;23314;51.114;6.900;2023-04-16T01:07:25;73.83;;;40.27;;
37451;SDS011;23314;51.114;6.900;2023-04-16T01:09:50;67.70;;;41.27;;
37451;SDS011;23314;51.114;6.900;2023-04-16T01:12:15;62.90;;;41.00;;
37451;SDS011;23314;51.114;6.900;2023-04-16T01:14:41;82.47;;;48.23;;
37451;SDS011;23314;51.114;6.900;2023-04-16T01:17:06;66.83;;;43.63;;
37451;SDS011;23314;51.114;6.900;2023-04-16T01:19:31;62.70;;;40.63;;
37451;SDS011;23314;51.114;6.900;2023-04-16T01:22:00;69.53;;;39.20;;
37451;SDS011;23314;51.114;6.900;2023-04-16T01:24:25;65.53;;;38.53;;
37451;SDS011;23314;51.114;6.900;2023-04-16T01:26:51;67.33;;;38.73;;
37451;SDS011;23314;51.114;6.900;2023-04-16T01:29:16;57.47;;;34.77;;
37451;SDS011;23314;51.114;6.900;2023-04-16T01:31:42;56.23;;;33.17;;
37451;SDS011;23314;51.114;6.900;2023-04-16T01:34:07;65.17;;;33.80;;
37451;SDS011;23314;51.114;6.900;2023-04-16T01:36:32;54.20;;;28.07;;
37451;SDS011;23314;51.114;6.900;2023-04-16T01:38:57;44.63;;;28.63;;
37451;SDS011;23314;51.114;6.900;2023-04-16T01:41:23;42.07;;;25.40;;
37451;SDS011;23314;51.114;6.900;2023-04-16T01:43:48;47.07;;;26.93;;
37451;SDS011;23314;51.114;6.900;2023-04-16T01:48:42;42.60;;;26.67;;
37451;SDS011;23314;51.114;6.900;2023-04-16T01:51:08;48.70;;;26.73;;
37451;SDS011;23314;51.114;6.900;2023-04-16T01:53:34;39.50;;;24.93;;
37451;SDS011;23314;51.114;6.900;2023-04-16T01:56:00;44.33;;;24.17;;
37451;SDS011;23314;51.114;6.900;2023-04-16T01:58:29;37.23;;;22.03;;
37451;SDS011;23314;51.114;6.900;2023-04-16T02:00:55;39.73;;;22.03;;
37451;SDS011;23314;51.114;6.900;2023-04-16T02:03:20;41.87;;;22.97;;
37451;SDS011;23314;51.114;6.900;2023-04-16T02:05:48;41.43;;;21.83;;
37451;SDS011;23314;51.114;6.900;2023-04-16T02:08:14;41.30;;;21.70;;
37451;SDS011;23314;51.114;6.900;2023-04-16T02:10:39;39.50;;;23.77;;
37451;SDS011;23314;51.114;6.900;2023-04-16T02:13:05;41.10;;;23.30;;
37451;SDS011;23314;51.114;6.900;2023-04-16T02:15:30;41.50;;;22.87;;
37451;SDS011;23314;51.114;6.900;2023-04-16T02:17:55;37.73;;;23.27;;
37451;SDS011;23314;51.114;6.900;2023-04-16T02:20:21;41.13;;;22.60;;
37451;SDS011;23314;51.114;6.900;2023-04-16T02:22:46;34.40;;;21.67;;
37451;SDS011;23314;51.114;6.900;2023-04-16T02:25:12;39.90;;;21.43;;
37451;SDS011;23314;51.114;6.900;2023-04-16T02:27:38;36.93;;;22.47;;
37451;SDS011;23314;51.114;6.900;2023-04-16T02:30:04;38.87;;;23.83;;
37451;SDS011;23314;51.114;6.900;2023-04-16T02:32:29;41.83;;;23.73;;
37451;SDS011;23314;51.114;6.900;2023-04-16T02:34:55;39.97;;;23.43;;
37451;SDS011;23314;51.114;6.900;2023-04-16T02:37:21;45.57;;;25.53;;
37451;SDS011;23314;51.114;6.900;2023-04-16T02:39:46;39.27;;;26.93;;
37451;SDS011;23314;51.114;6.900;2023-04-16T02:42:13;47.03;;;26.67;;
37451;SDS011;23314;51.114;6.900;2023-04-16T02:44:40;46.43;;;26.90;;
37451;SDS011;23314;51.114;6.900;2023-04-16T02:47:06;54.47;;;30.73;;
37451;SDS011;23314;51.114;6.900;2023-04-16T02:49:31;55.17;;;28.70;;
37451;SDS011;23314;51.114;6.900;2023-04-16T02:51:57;59.97;;;32.13;;
37451;SDS011;23314;51.114;6.900;2023-04-16T02:54:22;52.90;;;29.50;;
37451;SDS011;23314;51.114;6.900;2023-04-16T02:56:47;53.43;;;29.43;;
37451;SDS011;23314;51.114;6.900;2023-04-16T02:59:13;55.33;;;30.43;;
37451;SDS011;23314;51.114;6.900;2023-04-16T03:01:38;60.63;;;30.97;;
37451;SDS011;23314;51.114;6.900;2023-04-16T03:04:03;54.87;;;32.77;;
37451;SDS011;23314;51.114;6.900;2023-04-16T03:06:29;67.83;;;36.43;;
37451;SDS011;23314;51.114;6.900;2023-04-16T03:08:55;70.93;;;37.10;;
37451;SDS011;23314;51.114;6.900;2023-04-16T03:11:21;68.10;;;35.30;;
37451;SDS011;23314;51.114;6.900;2023-04-16T03:13:46;67.87;;;36.90;;
37451;SDS011;23314;51.114;6.900;2023-04-16T03:16:11;70.03;;;37.63;;
37451;SDS011;23314;51.114;6.900;2023-04-16T03:18:37;65.80;;;37.93;;
37451;SDS011;23314;51.114;6.900;2023-04-16T03:21:02;75.90;;;42.17;;
37451;SDS011;23314;51.114;6.900;2023-04-16T03:23:27;81.33;;;41.63;;
37451;SDS011;23314;51.114;6.900;2023-04-16T03:25:53;83.27;;;45.80;;
37451;SDS011;23314;51.114;6.900;2023-04-16T03:28:18;101.83;;;50.20;;
37451;SDS011;23314;51.114;6.900;2023-04-16T03:30:48;100.60;;;50.53;;
37451;SDS011;23314;51.114;6.900;2023-04-16T03:33:18;105.87;;;52.23;;
37451;SDS011;23314;51.114;6.900;2023-04-16T03:35:44;94.73;;;48.80;;
37451;SDS011;23314;51.114;6.900;2023-04-16T03:38:10;96.70;;;51.67;;
37451;SDS011;23314;51.114;6.900;2023-04-16T03:40:36;94.60;;;49.83;;
37451;SDS011;23314;51.114;6.900;2023-04-16T03:43:01;99.93;;;50.70;;
37451;SDS011;23314;51.114;6.900;2023-04-16T03:45:26;104.57;;;51.47;;
37451;SDS011;23314;51.114;6.900;2023-04-16T03:47:52;109.77;;;53.20;;
37451;SDS011;23314;51.114;6.900;2023-04-16T03:50:17;105.27;;;53.90;;
37451;SDS011;23314;51.114;6.900;2023-04-16T03:52:43;109.53;;;53.27;;
37451;SDS011;23314;51.114;6.900;2023-04-16T03:55:09;109.43;;;52.30;;
37451;SDS011;23314;51.114;6.900;2023-04-16T03:57:34;102.80;;;50.37;;
37451;SDS011;23314;51.114;6.900;2023-04-16T03:59:59;103.53;;;50.80;;
37451;SDS011;23314;51.114;6.900;2023-04-16T04:02:25;111.83;;;53.83;;
37451;SDS011;23314;51.114;6.900;2023-04-16T04:04:51;108.37;;;53.17;;
37451;SDS011;23314;51.114;6.900;2023-04-16T04:07:16;112.70;;;52.97;;
37451;SDS011;23314;51.114;6.900;2023-04-16T04:09:41;111.30;;;53.33;;
37451;SDS011;23314;51.114;6.900;2023-04-16T04:12:07;99.20;;;52.03;;
37451;SDS011;23314;51.114;6.900;2023-04-16T04:14:33;115.07;;;53.63;;
37451;SDS011;23314;51.114;6.900;2023-04-16T04:17:03;99.43;;;53.70;;
37451;SDS011;23314;51.114;6.900;2023-04-16T04:19:29;105.20;;;53.00;;
37451;SDS011;23314;51.114;6.900;2023-04-16T04:21:54;106.90;;;54.27;;
37451;SDS011;23314;51.114;6.900;2023-04-16T04:24:20;106.03;;;54.83;;
37451;SDS011;23314;51.114;6.900;2023-04-16T04:26:45;108.10;;;54.13;;
37451;SDS011;23314;51.114;6.900;2023-04-16T04:29:11;103.77;;;52.97;;
37451;SDS011;23314;51.114;6.900;2023-04-16T04:31:36;113.80;;;54.27;;
37451;SDS011;23314;51.114;6.900;2023-04-16T04:34:01;106.70;;;54.63;;
37451;SDS011;23314;51.114;6.900;2023-04-16T04:36:26;98.07;;;51.10;;
37451;SDS011;23314;51.114;6.900;2023-04-16T04:38:52;106.43;;;53.93;;
37451;SDS011;23314;51.114;6.900;2023-04-16T04:41:17;93.40;;;53.13;;
37451;SDS011;23314;51.114;6.900;2023-04-16T04:43:42;97.70;;;51.03;;
37451;SDS011;23314;51.114;6.900;2023-04-16T04:46:08;95.77;;;51.20;;
37451;SDS011;23314;51.114;6.900;2023-04-16T04:48:33;91.13;;;49.43;;
37451;SDS011;23314;51.114;6.900;2023-04-16T04:50:59;93.93;;;50.07;;
37451;SDS011;23314;51.114;6.900;2023-04-16T04:53:24;91.10;;;51.23;;
37451;SDS011;23314;51.114;6.900;2023-04-16T04:55:49;101.53;;;50.83;;
37451;SDS011;23314;51.114;6.900;2023-04-16T04:58:15;90.23;;;48.90;;
37451;SDS011;23314;51.114;6.900;2023-04-16T05:00:40;96.67;;;52.10;;
37451;SDS011;23314;51.114;6.900;2023-04-16T05:03:08;94.70;;;50.07;;
37451;SDS011;23314;51.114;6.900;2023-04-16T05:05:35;93.10;;;49.53;;
37451;SDS011;23314;51.114;6.900;2023-04-16T05:08:00;89.47;;;49.70;;
37451;SDS011;23314;51.114;6.900;2023-04-16T05:10:26;95.27;;;48.30;;
37451;SDS011;23314;51.114;6.900;2023-04-16T05:12:51;93.73;;;50.37;;
37451;SDS011;23314;51.114;6.900;2023-04-16T05:15:17;92.63;;;49.40;;
37451;SDS011;23314;51.114;6.900;2023-04-16T05:17:42;94.00;;;51.23;;
37451;SDS011;23314;51.114;6.900;2023-04-16T05:20:08;94.47;;;50.80;;
37451;SDS011;23314;51.114;6.900;2023-04-16T05:22:34;99.83;;;50.53;;
37451;SDS011;23314;51.114;6.900;2023-04-16T05:24:59;101.13;;;50.43;;
37451;SDS011;23314;51.114;6.900;2023-04-16T05:27:24;94.40;;;51.40;;
37451;SDS011;23314;51.114;6.900;2023-04-16T05:29:51;107.00;;;53.33;;
37451;SDS011;23314;51.114;6.900;2023-04-16T05:32:17;108.50;;;52.33;;
37451;SDS011;23314;51.114;6.900;2023-04-16T05:34:42;109.53;;;52.60;;
37451;SDS011;23314;51.114;6.900;2023-04-16T05:37:08;109.93;;;54.90;;
37451;SDS011;23314;51.114;6.900;2023-04-16T05:39:33;106.70;;;51.50;;
37451;SDS011;23314;51.114;6.900;2023-04-16T05:41:58;112.83;;;54.80;;
37451;SDS011;23314;51.114;6.900;2023-04-16T05:44:24;116.73;;;55.70;;
37451;SDS011;23314;51.114;6.900;2023-04-16T05:46:49;117.83;;;54.90;;
37451;SDS011;23314;51.114;6.900;2023-04-16T05:49:15;113.93;;;54.73;;
37451;SDS011;23314;51.114;6.900;2023-04-16T05:51:42;113.47;;;55.33;;
37451;SDS011;23314;51.114;6.900;2023-04-16T05:54:08;113.93;;;55.87;;
37451;SDS011;23314;51.114;6.900;2023-04-16T05:56:33;116.77;;;56.47;;
37451;SDS011;23314;51.114;6.900;2023-04-16T05:58:58;119.50;;;54.63;;
37451;SDS011;23314;51.114;6.900;2023-04-16T06:01:24;125.07;;;57.37;;
37451;SDS011;23314;51.114;6.900;2023-04-16T06:03:49;124.93;;;55.10;;
37451;SDS011;23314;51.114;6.900;2023-04-16T06:06:14;120.93;;;55.93;;
37451;SDS011;23314;51.114;6.900;2023-04-16T06:08:40;111.40;;;53.03;;
37451;SDS011;23314;51.114;6.900;2023-04-16T06:11:05;99.43;;;50.00;;
37451;SDS011;23314;51.114;6.900;2023-04-16T06:13:30;94.40;;;45.23;;
37451;SDS011;23314;51.114;6.900;2023-04-16T06:15:56;94.53;;;48.00;;
37451;SDS011;23314;51.114;6.900;2023-04-16T06:18:21;85.37;;;45.83;;
37451;SDS011;23314;51.114;6.900;2023-04-16T06:20:46;84.63;;;45.63;;
37451;SDS011;23314;51.114;6.900;2023-04-16T06:23:12;82.70;;;45.43;;
37451;SDS011;23314;51.114;6.900;2023-04-16T06:25:37;74.43;;;42.93;;
37451;SDS011;23314;51.114;6.900;2023-04-16T06:28:02;80.17;;;42.53;;
37451;SDS011;23314;51.114;6.900;2023-04-16T06:30:28;78.33;;;44.00;;
37451;SDS011;23314;51.114;6.900;2023-04-16T06:32:53;71.07;;;41.63;;
37451;SDS011;23314;51.114;6.900;2023-04-16T06:35:18;77.77;;;42.00;;
37451;SDS011;23314;51.114;6.900;2023-04-16T06:37:44;89.60;;;46.13;;
37451;SDS011;23314;51.114;6.900;2023-04-16T06:40:10;86.43;;;46.97;;
37451;SDS011;23314;51.114;6.900;2023-04-16T06:42:36;89.97;;;46.20;;
37451;SDS011;23314;51.114;6.900;2023-04-16T06:45:01;90.73;;;46.13;;
37451;SDS011;23314;51.114;6.900;2023-04-16T06:47:26;91.03;;;45.77;;
37451;SDS011;23314;51.114;6.900;2023-04-16T06:49:52;88.37;;;47.30;;
37451;SDS011;23314;51.114;6.900;2023-04-16T06:52:17;84.73;;;46.20;;
37451;SDS011;23314;51.114;6.900;2023-04-16T06:54:42;77.73;;;42.13;;
37451;SDS011;23314;51.114;6.900;2023-04-16T06:57:08;75.83;;;43.10;;
37451;SDS011;23314;51.114;6.900;2023-04-16T06:59:33;84.70;;;45.90;;
37451;SDS011;23314;51.114;6.900;2023-04-16T07:01:58;87.53;;;45.63;;
37451;SDS011;23314;51.114;6.900;2023-04-16T07:04:24;74.70;;;41.37;;
37451;SDS011;23314;51.114;6.900;2023-04-16T07:06:50;66.27;;;37.40;;
37451;SDS011;23314;51.114;6.900;2023-04-16T07:09:15;57.20;;;33.10;;
37451;SDS011;23314;51.114;6.900;2023-04-16T07:11:42;57.43;;;33.67;;
37451;SDS011;23314;51.114;6.900;2023-04-16T07:14:08;57.27;;;34.40;;
37451;SDS011;23314;51.114;6.900;2023-04-16T07:16:33;56.60;;;33.60;;
37451;SDS011;23314;51.114;6.900;2023-04-16T07:18:58;56.87;;;33.20;;
37451;SDS011;23314;51.114;6.900;2023-04-16T07:21:24;50.17;;;30.73;;
37451;SDS011;23314;51.114;6.900;2023-04-16T07:23:50;48.27;;;29.47;;
37451;SDS011;23314;51.114;6.900;2023-04-16T07:26:15;53.37;;;31.27;;
37451;SDS011;23314;51.114;6.900;2023-04-16T07:28:41;48.70;;;29.53;;
37451;SDS011;23314;51.114;6.900;2023-04-16T07:31:06;41.13;;;26.60;;
37451;SDS011;23314;51.114;6.900;2023-04-16T07:33:32;44.17;;;27.43;;
37451;SDS011;23314;51.114;6.900;2023-04-16T07:35:57;44.70;;;28.13;;
37451;SDS011;23314;51.114;6.900;2023-04-16T07:38:23;35.30;;;24.87;;
37451;SDS011;23314;51.114;6.900;2023-04-16T07:40:48;40.63;;;27.03;;
37451;SDS011;23314;51.114;6.900;2023-04-16T07:43:13;37.60;;;25.30;;
37451;SDS011;23314;51.114;6.900;2023-04-16T07:45:40;38.77;;;25.33;;
37451;SDS011;23314;51.114;6.900;2023-04-16T07:48:05;35.50;;;25.00;;
37451;SDS011;23314;51.114;6.900;2023-04-16T07:50:31;36.03;;;24.10;;
37451;SDS011;23314;51.114;6.900;2023-04-16T07:52:56;33.87;;;24.17;;
37451;SDS011;23314;51.114;6.900;2023-04-16T07:55:21;36.90;;;24.97;;
37451;SDS011;23314;51.114;6.900;2023-04-16T07:57:47;35.60;;;25.30;;
37451;SDS011;23314;51.114;6.900;2023-04-16T08:00:12;34.60;;;24.00;;
37451;SDS011;23314;51.114;6.900;2023-04-16T08:02:38;31.70;;;23.80;;
37451;SDS011;23314;51.114;6.900;2023-04-16T08:05:03;40.57;;;25.60;;
37451;SDS011;23314;51.114;6.900;2023-04-16T08:07:29;31.07;;;22.60;;
37451;SDS011;23314;51.114;6.900;2023-04-16T08:09:54;31.23;;;23.40;;
37451;SDS011;23314;51.114;6.900;2023-04-16T08:12:19;35.13;;;24.00;;
37451;SDS011;23314;51.114;6.900;2023-04-16T08:14:45;31.77;;;23.27;;
37451;SDS011;23314;51.114;6.900;2023-04-16T08:17:11;38.00;;;24.77;;
37451;SDS011;23314;51.114;6.900;2023-04-16T08:19:37;34.63;;;23.63;;
37451;SDS011;23314;51.114;6.900;2023-04-16T08:22:03;34.80;;;24.03;;
37451;SDS011;23314;51.114;6.900;2023-04-16T08:24:28;31.23;;;22.97;;
37451;SDS011;23314;51.114;6.900;2023-04-16T08:26:53;35.13;;;24.30;;
37451;SDS011;23314;51.114;6.900;2023-04-16T08:29:19;29.93;;;24.03;;
37451;SDS011;23314;51.114;6.900;2023-04-16T08:31:45;33.07;;;23.63;;
37451;SDS011;23314;51.114;6.900;2023-04-16T08:34:10;37.50;;;24.40;;
37451;SDS011;23314;51.114;6.900;2023-04-16T08:36:36;30.47;;;22.20;;
37451;SDS011;23314;51.114;6.900;2023-04-16T08:39:01;29.13;;;23.37;;
37451;SDS011;23314;51.114;6.900;2023-04-16T08:41:28;30.23;;;23.83;;
37451;SDS011;23314;51.114;6.900;2023-04-16T08:43:56;32.43;;;23.07;;
37451;SDS011;23314;51.114;6.900;2023-04-16T08:46:24;29.50;;;23.10;;
37451;SDS011;23314;51.114;6.900;2023-04-16T08:48:52;30.63;;;22.47;;
37451;SDS011;23314;51.114;6.900;2023-04-16T08:51:21;33.43;;;23.20;;
37451;SDS011;23314;51.114;6.900;2023-04-16T08:53:48;29.97;;;23.53;;
37451;SDS011;23314;51.114;6.900;2023-04-16T08:56:15;34.40;;;23.27;;
37451;SDS011;23314;51.114;6.900;2023-04-16T08:58:44;30.87;;;22.50;;
37451;SDS011;23314;51.114;6.900;2023-04-16T09:01:11;29.30;;;21.83;;
37451;SDS011;23314;51.114;6.900;2023-04-16T09:03:37;30.93;;;23.10;;
37451;SDS011;23314;51.114;6.900;2023-04-16T09:06:03;30.90;;;24.00;;
37451;SDS011;23314;51.114;6.900;2023-04-16T09:08:31;32.60;;;23.43;;
37451;SDS011;23314;51.114;6.900;2023-04-16T09:10:57;28.07;;;23.43;;
37451;SDS011;23314;51.114;6.900;2023-04-16T09:13:22;31.57;;;22.63;;
37451;SDS011;23314;51.114;6.900;2023-04-16T09:15:54;28.67;;;22.40;;
37451;SDS011;23314;51.114;6.900;2023-04-16T09:18:23;29.70;;;23.57;;
37451;SDS011;23314;51.114;6.900;2023-04-16T09:20:49;31.70;;;23.97;;
37451;SDS011;23314;51.114;6.900;2023-04-16T09:23:15;32.33;;;24.03;;
37451;SDS011;23314;51.114;6.900;2023-04-16T09:25:40;29.37;;;23.47;;
37451;SDS011;23314;51.114;6.900;2023-04-16T09:28:06;29.63;;;23.77;;
37451;SDS011;23314;51.114;6.900;2023-04-16T09:30:31;26.73;;;22.67;;
37451;SDS011;23314;51.114;6.900;2023-04-16T09:35:55;31.00;;;24.53;;
37451;SDS011;23314;51.114;6.900;2023-04-16T09:38:21;26.33;;;22.87;;
37451;SDS011;23314;51.114;6.900;2023-04-16T09:40:46;26.67;;;22.07;;
37451;SDS011;23314;51.114;6.900;2023-04-16T09:43:15;27.57;;;22.50;;
37451;SDS011;23314;51.114;6.900;2023-04-16T09:45:48;27.63;;;21.27;;
37451;SDS011;23314;51.114;6.900;2023-04-16T09:48:30;27.23;;;21.80;;
37451;SDS011;23314;51.114;6.900;2023-04-16T09:50:57;25.97;;;20.73;;
37451;SDS011;23314;51.114;6.900;2023-04-16T09:53:24;27.83;;;22.23;;
37451;SDS011;23314;51.114;6.900;2023-04-16T09:55:51;24.53;;;21.23;;
37451;SDS011;23314;51.114;6.900;2023-04-16T09:58:26;27.90;;;21.77;;
37451;SDS011;23314;51.114;6.900;2023-04-16T10:01:02;25.70;;;21.07;;
37451;SDS011;23314;51.114;6.900;2023-04-16T10:03:34;24.93;;;21.40;;
37451;SDS011;23314;51.114;6.900;2023-04-16T10:06:07;26.70;;;21.97;;
37451;SDS011;23314;51.114;6.900;2023-04-16T10:08:41;22.33;;;19.47;;
37451;SDS011;23314;51.114;6.900;2023-04-16T10:11:07;23.03;;;20.17;;
37451;SDS011;23314;51.114;6.900;2023-04-16T10:13:32;26.83;;;21.03;;
37451;SDS011;23314;51.114;6.900;2023-04-16T10:15:58;26.03;;;20.80;;
37451;SDS011;23314;51.114;6.900;2023-04-16T10:18:24;22.67;;;18.83;;
37451;SDS011;23314;51.114;6.900;2023-04-16T10:20:49;22.63;;;18.90;;
37451;SDS011;23314;51.114;6.900;2023-04-16T10:23:15;25.17;;;20.47;;
37451;SDS011;23314;51.114;6.900;2023-04-16T10:25:41;26.30;;;20.30;;
37451;SDS011;23314;51.114;6.900;2023-04-16T10:28:08;21.77;;;18.77;;
37451;SDS011;23314;51.114;6.900;2023-04-16T10:30:34;24.60;;;20.03;;
37451;SDS011;23314;51.114;6.900;2023-04-16T10:33:00;22.97;;;20.53;;
37451;SDS011;23314;51.114;6.900;2023-04-16T10:35:28;25.00;;;20.37;;
37451;SDS011;23314;51.114;6.900;2023-04-16T10:37:58;25.13;;;20.90;;
37451;SDS011;23314;51.114;6.900;2023-04-16T10:40:49;25.63;;;20.73;;
37451;SDS011;23314;51.114;6.900;2023-04-16T10:43:17;22.77;;;20.47;;
37451;SDS011;23314;51.114;6.900;2023-04-16T10:45:43;22.70;;;20.13;;
37451;SDS011;23314;51.114;6.900;2023-04-16T10:48:09;23.07;;;20.23;;
37451;SDS011;23314;51.114;6.900;2023-04-16T10:50:36;23.90;;;20.30;;
37451;SDS011;23314;51.114;6.900;2023-04-16T10:55:55;22.83;;;20.00;;
37451;SDS011;23314;51.114;6.900;2023-04-16T10:58:27;23.80;;;19.27;;
37451;SDS011;23314;51.114;6.900;2023-04-16T11:00:53;19.80;;;17.70;;
37451;SDS011;23314;51.114;6.900;2023-04-16T11:03:18;23.23;;;19.43;;
37451;SDS011;23314;51.114;6.900;2023-04-16T11:05:44;23.30;;;19.27;;
37451;SDS011;23314;51.114;6.900;2023-04-16T11:08:13;22.73;;;19.37;;
37451;SDS011;23314;51.114;6.900;2023-04-16T11:10:38;22.07;;;19.00;;
37451;SDS011;23314;51.114;6.900;2023-04-16T11:13:03;25.63;;;20.73;;
37451;SDS011;23314;51.114;6.900;2023-04-16T11:15:30;23.57;;;18.97;;
37451;SDS011;23314;51.114;6.900;2023-04-16T11:17:57;23.97;;;19.30;;
37451;SDS011;23314;51.114;6.900;2023-04-16T11:20:24;21.73;;;19.53;;
37451;SDS011;23314;51.114;6.900;2023-04-16T11:22:51;20.67;;;18.57;;
37451;SDS011;23314;51.114;6.900;2023-04-16T11:25:21;21.67;;;19.23;;
37451;SDS011;23314;51.114;6.900;2023-04-16T11:27:49;22.30;;;19.27;;
37451;SDS011;23314;51.114;6.900;2023-04-16T11:30:16;22.57;;;19.67;;
37451;SDS011;23314;51.114;6.900;2023-04-16T11:32:42;24.40;;;19.20;;
37451;SDS011;23314;51.114;6.900;2023-04-16T11:35:15;25.83;;;20.87;;
37451;SDS011;23314;51.114;6.900;2023-04-16T11:37:42;24.05;;;20.17;;
37451;SDS011;23314;51.114;6.900;2023-04-16T11:40:08;23.35;;;20.85;;
37451;SDS011;23314;51.114;6.900;2023-04-16T11:42:34;24.40;;;20.70;;
37451;SDS011;23314;51.114;6.900;2023-04-16T11:45:09;22.10;;;18.63;;
37451;SDS011;23314;51.114;6.900;2023-04-16T11:47:42;18.93;;;16.27;;
37451;SDS011;23314;51.114;6.900;2023-04-16T11:50:19;19.03;;;17.17;;
37451;SDS011;23314;51.114;6.900;2023-04-16T11:52:47;18.43;;;16.53;;
37451;SDS011;23314;51.114;6.900;2023-04-16T11:55:13;22.07;;;17.27;;
37451;SDS011;23314;51.114;6.900;2023-04-16T11:57:38;20.87;;;18.23;;
37451;SDS011;23314;51.114;6.900;2023-04-16T12:00:04;19.77;;;17.77;;
37451;SDS011;23314;51.114;6.900;2023-04-16T12:02:37;19.50;;;17.50;;
37451;SDS011;23314;51.114;6.900;2023-04-16T12:05:07;20.97;;;18.10;;
37451;SDS011;23314;51.114;6.900;2023-04-16T12:07:52;20.80;;;17.63;;
37451;SDS011;23314;51.114;6.900;2023-04-16T12:10:17;18.07;;;16.27;;
37451;SDS011;23314;51.114;6.900;2023-04-16T12:12:42;19.00;;;16.60;;
37451;SDS011;23314;51.114;6.900;2023-04-16T12:15:08;17.97;;;16.17;;
37451;SDS011;23314;51.114;6.900;2023-04-16T12:17:34;19.00;;;16.43;;
37451;SDS011;23314;51.114;6.900;2023-04-16T12:20:01;18.13;;;16.23;;
37451;SDS011;23314;51.114;6.900;2023-04-16T12:22:31;17.20;;;15.40;;
37451;SDS011;23314;51.114;6.900;2023-04-16T12:25:01;17.73;;;16.03;;
37451;SDS011;23314;51.114;6.900;2023-04-16T12:30:13;17.67;;;15.97;;
37451;SDS011;23314;51.114;6.900;2023-04-16T12:32:40;18.10;;;16.40;;
37451;SDS011;23314;51.114;6.900;2023-04-16T12:35:07;16.43;;;14.97;;
37451;SDS011;23314;51.114;6.900;2023-04-16T12:37:34;16.93;;;15.23;;
37451;SDS011;23314;51.114;6.900;2023-04-16T12:40:00;16.73;;;15.03;;
37451;SDS011;23314;51.114;6.900;2023-04-16T12:42:25;16.17;;;14.67;;
37451;SDS011;23314;51.114;6.900;2023-04-16T12:44:51;17.03;;;15.33;;
37451;SDS011;23314;51.114;6.900;2023-04-16T12:47:16;15.80;;;14.30;;
37451;SDS011;23314;51.114;6.900;2023-04-16T12:49:41;17.50;;;15.67;;
37451;SDS011;23314;51.114;6.900;2023-04-16T12:52:08;15.97;;;14.37;;
37451;SDS011;23314;51.114;6.900;2023-04-16T12:54:33;16.47;;;14.90;;
37451;SDS011;23314;51.114;6.900;2023-04-16T12:56:59;14.47;;;13.10;;
37451;SDS011;23314;51.114;6.900;2023-04-16T12:59:24;14.80;;;13.40;;
37451;SDS011;23314;51.114;6.900;2023-04-16T13:01:49;14.07;;;12.77;;
37451;SDS011;23314;51.114;6.900;2023-04-16T13:04:15;14.20;;;12.77;;
37451;SDS011;23314;51.114;6.900;2023-04-16T13:06:41;14.57;;;13.17;;
37451;SDS011;23314;51.114;6.900;2023-04-16T13:09:07;15.43;;;12.90;;
37451;SDS011;23314;51.114;6.900;2023-04-16T13:11:32;16.00;;;14.40;;
37451;SDS011;23314;51.114;6.900;2023-04-16T13:13:57;15.80;;;14.20;;
37451;SDS011;23314;51.114;6.900;2023-04-16T13:16:23;16.00;;;14.40;;
37451;SDS011;23314;51.114;6.900;2023-04-16T13:18:48;16.73;;;13.83;;
37451;SDS011;23314;51.114;6.900;2023-04-16T13:21:14;15.67;;;13.53;;
37451;SDS011;23314;51.114;6.900;2023-04-16T13:23:39;15.67;;;14.30;;
37451;SDS011;23314;51.114;6.900;2023-04-16T13:26:05;16.00;;;14.33;;
37451;SDS011;23314;51.114;6.900;2023-04-16T13:28:30;17.27;;;14.53;;
37451;SDS011;23314;51.114;6.900;2023-04-16T13:30:56;14.83;;;13.23;;
37451;SDS011;23314;51.114;6.900;2023-04-16T13:33:21;13.87;;;12.47;;
37451;SDS011;23314;51.114;6.900;2023-04-16T13:35:49;15.53;;;13.23;;
37451;SDS011;23314;51.114;6.900;2023-04-16T13:38:15;14.40;;;12.70;;
37451;SDS011;23314;51.114;6.900;2023-04-16T13:40:41;15.50;;;13.87;;
37451;SDS011;23314;51.114;6.900;2023-04-16T13:43:06;14.93;;;13.33;;
37451;SDS011;23314;51.114;6.900;2023-04-16T13:45:32;14.67;;;13.17;;
37451;SDS011;23314;51.114;6.900;2023-04-16T13:47:58;16.17;;;13.63;;
37451;SDS011;23314;51.114;6.900;2023-04-16T13:50:24;15.20;;;13.63;;
37451;SDS011;23314;51.114;6.900;2023-04-16T13:52:49;14.97;;;13.33;;
37451;SDS011;23314;51.114;6.900;2023-04-16T13:55:15;15.10;;;13.50;;
37451;SDS011;23314;51.114;6.900;2023-04-16T13:57:43;15.50;;;13.90;;
37451;SDS011;23314;51.114;6.900;2023-04-16T14:00:09;14.90;;;13.37;;
37451;SDS011;23314;51.114;6.900;2023-04-16T14:02:35;14.40;;;13.10;;
37451;SDS011;23314;51.114;6.900;2023-04-16T14:05:01;14.70;;;13.20;;
37451;SDS011;23314;51.114;6.900;2023-04-16T14:07:26;15.30;;;13.80;;
37451;SDS011;23314;51.114;6.900;2023-04-16T14:09:52;14.13;;;12.57;;
37451;SDS011;23314;51.114;6.900;2023-04-16T14:12:17;14.50;;;13.07;;
37451;SDS011;23314;51.114;6.900;2023-04-16T14:14:43;15.53;;;13.10;;
37451;SDS011;23314;51.114;6.900;2023-04-16T14:17:08;13.63;;;12.33;;
37451;SDS011;23314;51.114;6.900;2023-04-16T14:19:33;14.20;;;12.70;;
37451;SDS011;23314;51.114;6.900;2023-04-16T14:21:59;13.83;;;12.07;;
37451;SDS011;23314;51.114;6.900;2023-04-16T14:24:24;14.13;;;12.73;;
37451;SDS011;23314;51.114;6.900;2023-04-16T14:26:49;14.00;;;12.53;;